createdAt,value
2022-12-24T00:01:08.506Z,99523.88
2022-12-24T00:03:38.111Z,99521.25
2022-12-24T00:06:06.577Z,99522.09
2022-12-24T00:08:34.589Z,99532.66
2022-12-24T00:11:03.568Z,99522.97
2022-12-24T00:13:31.262Z,99531.78
2022-12-24T00:15:58.930Z,99535.28
2022-12-24T00:18:26.588Z,99538.81
2022-12-24T00:20:54.677Z,99538.81
2022-12-24T00:23:22.688Z,99547.56
2022-12-24T00:25:50.315Z,99547.56
2022-12-24T00:28:19.440Z,99563.38
2022-12-24T00:30:47.171Z,99560.75
2022-12-24T00:33:19.451Z,99560.75
2022-12-24T00:35:52.361Z,99566.91
2022-12-24T00:38:20.260Z,99568.69
2022-12-24T00:40:47.917Z,99577.44
2022-12-24T00:43:15.552Z,99578.34
2022-12-24T00:45:44.581Z,99590.63
2022-12-24T00:48:12.334Z,99590.63
2022-12-24T00:50:39.945Z,99595.94
2022-12-24T00:53:07.630Z,99606.47
2022-12-24T00:55:35.252Z,99605.56
2022-12-24T00:58:02.926Z,99614.38
2022-12-24T01:00:30.662Z,99619.63
2022-12-24T01:02:59.915Z,99617.00
2022-12-24T01:05:27.098Z,99617.84
2022-12-24T01:07:55.005Z,99636.31
2022-12-24T01:10:22.746Z,99633.69
2022-12-24T01:12:50.390Z,99638.06
2022-12-24T01:15:18.392Z,99642.44
2022-12-24T01:17:46.217Z,99643.34
2022-12-24T01:20:18.075Z,99645.09
2022-12-24T01:22:46.287Z,99665.28
2022-12-24T01:25:15.707Z,99655.63
2022-12-24T01:27:43.403Z,99665.28
2022-12-24T01:30:15.501Z,99667.91
2022-12-24T01:32:43.473Z,99667.91
2022-12-24T01:35:12.453Z,99681.09
2022-12-24T01:37:43.344Z,99672.28
2022-12-24T01:40:33.554Z,99685.44
2022-12-24T01:43:18.616Z,99687.22
2022-12-24T01:45:49.656Z,99677.56
2022-12-24T01:48:23.305Z,99690.72
2022-12-24T01:50:54.892Z,99693.34
2022-12-24T01:53:24.654Z,99692.47
2022-12-24T01:55:53.311Z,99710.00
2022-12-24T01:58:23.841Z,99713.56
2022-12-24T02:00:51.456Z,99716.19
2022-12-24T02:03:19.908Z,99702.13
2022-12-24T02:05:50.303Z,99714.41
2022-12-24T02:08:19.114Z,99713.53
2022-12-24T02:10:49.904Z,99715.28
2022-12-24T02:13:21.920Z,99711.75
2022-12-24T02:16:02.354Z,99724.91
2022-12-24T02:18:38.273Z,99718.78
2022-12-24T02:21:39.647Z,99731.09
2022-12-24T02:24:28.928Z,99726.69
2022-12-24T02:27:11.003Z,99732.84
2022-12-24T02:30:03.422Z,99743.38
2022-12-24T02:32:38.433Z,99748.63
2022-12-24T02:35:11.811Z,99761.78
2022-12-24T02:37:43.441Z,99756.53
2022-12-24T02:40:16.822Z,99751.25
2022-12-24T02:42:51.219Z,99749.47
2022-12-24T02:45:23.795Z,99756.50
2022-12-24T02:47:52.985Z,99745.09
2022-12-24T02:50:20.759Z,99755.63
2022-12-24T02:52:49.329Z,99751.22
2022-12-24T02:55:20.222Z,99753.00
2022-12-24T02:58:02.925Z,99765.25
2022-12-24T03:00:41.738Z,99781.94
2022-12-24T03:03:29.930Z,99759.97
2022-12-24T03:06:09.317Z,99756.47
2022-12-24T03:08:45.464Z,99766.13
2022-12-24T03:11:15.289Z,99765.25
2022-12-24T03:13:44.693Z,99759.09
2022-12-24T03:16:16.317Z,99767.00
2022-12-24T03:18:47.037Z,99768.75
2022-12-24T03:21:21.860Z,99767.88
2022-12-24T03:23:49.764Z,99777.53
2022-12-24T03:26:19.339Z,99781.91
2022-12-24T03:28:48.081Z,99791.56
2022-12-24T03:31:18.632Z,99788.94
2022-12-24T03:33:46.906Z,99796.81
2022-12-24T03:36:14.857Z,99793.31
2022-12-24T03:38:42.971Z,99799.44
2022-12-24T03:41:10.981Z,99795.03
2022-12-24T03:43:38.837Z,99806.47
2022-12-24T03:46:07.968Z,99791.53
2022-12-24T03:48:37.158Z,99802.06
2022-12-24T03:51:05.331Z,99800.31
2022-12-24T03:53:33.524Z,99802.94
2022-12-24T03:56:01.323Z,99816.94
2022-12-24T03:58:28.988Z,99815.19
2022-12-24T04:00:56.700Z,99815.19
2022-12-24T04:03:24.477Z,99831.00
2022-12-24T04:06:02.798Z,99825.72
2022-12-24T04:08:30.505Z,99834.50
2022-12-24T04:10:58.231Z,99828.34
2022-12-24T04:13:26.141Z,99824.84
2022-12-24T04:15:59.095Z,99834.50
2022-12-24T04:18:27.074Z,99831.00
2022-12-24T04:20:54.820Z,99834.50
2022-12-24T04:23:24.382Z,99841.50
2022-12-24T04:25:52.445Z,99846.78
2022-12-24T04:28:20.168Z,99869.56
2022-12-24T04:30:47.819Z,99862.56
2022-12-24T04:33:15.485Z,99864.28
2022-12-24T04:35:45.094Z,99859.03
2022-12-24T04:38:12.793Z,99869.56
2022-12-24T04:40:41.805Z,99869.53
2022-12-24T04:43:09.457Z,99871.28
2022-12-24T04:45:37.273Z,99854.59
2022-12-24T04:48:05.488Z,99872.16
2022-12-24T04:50:33.334Z,99869.50
2022-12-24T04:53:01.027Z,99857.22
2022-12-24T04:55:28.748Z,99860.72
2022-12-24T04:57:57.727Z,99862.47
2022-12-24T05:00:25.595Z,99870.34
2022-12-24T05:02:53.891Z,99859.81
2022-12-24T05:05:24.653Z,99865.94
2022-12-24T05:07:52.421Z,99859.81
2022-12-24T05:10:20.301Z,99868.56
2022-12-24T05:12:47.934Z,99863.31
2022-12-24T05:15:17.069Z,99871.19
2022-12-24T05:17:44.822Z,99876.47
2022-12-24T05:20:12.475Z,99875.59
2022-12-24T05:22:58.211Z,99873.84
2022-12-24T05:25:44.045Z,99886.13
2022-12-24T05:28:11.924Z,99885.25
2022-12-24T05:30:40.982Z,99890.50
2022-12-24T05:33:08.824Z,99890.50
2022-12-24T05:35:36.494Z,99891.41
2022-12-24T05:38:04.219Z,99896.66
2022-12-24T05:40:31.863Z,99910.69
2022-12-24T05:42:59.524Z,99904.53
2022-12-24T05:45:27.222Z,99914.19
2022-12-24T05:47:56.304Z,99911.56
2022-12-24T05:50:23.992Z,99918.53
2022-12-24T05:53:05.606Z,99915.91
2022-12-24T05:55:33.628Z,99915.06
2022-12-24T05:58:01.546Z,99921.22
2022-12-24T06:00:29.196Z,99918.69
2022-12-24T06:02:58.765Z,99924.03
2022-12-24T06:05:26.441Z,99920.56
2022-12-24T06:07:54.124Z,99927.69
2022-12-24T06:10:21.978Z,99924.22
2022-12-24T06:12:49.645Z,99935.66
2022-12-24T06:15:23.514Z,99935.72
2022-12-24T06:17:51.668Z,99932.22
2022-12-24T06:20:20.723Z,99933.13
2022-12-24T06:22:48.519Z,99944.56
2022-12-24T06:25:16.259Z,99946.38
2022-12-24T06:27:43.958Z,99950.78
2022-12-24T06:30:12.177Z,99963.97
2022-12-24T06:32:39.865Z,99963.19
2022-12-24T06:35:08.011Z,99964.09
2022-12-24T06:37:37.044Z,99969.41
2022-12-24T06:40:05.415Z,99974.72
2022-12-24T06:42:33.364Z,99984.38
2022-12-24T06:45:07.487Z,99983.50
2022-12-24T06:47:35.945Z,99983.53
2022-12-24T06:50:03.853Z,99990.56
2022-12-24T06:52:31.681Z,99999.38
2022-12-24T06:55:00.731Z,100007.31
2022-12-24T06:57:28.386Z,100008.16
2022-12-24T06:59:56.027Z,100014.38
2022-12-24T07:02:24.319Z,100017.88
2022-12-24T07:04:52.390Z,100019.63
2022-12-24T07:07:20.094Z,100016.13
2022-12-24T07:09:48.056Z,100026.69
2022-12-24T07:12:17.093Z,100030.25
2022-12-24T07:14:44.848Z,100031.13
2022-12-24T07:17:12.666Z,100037.28
2022-12-24T07:19:40.500Z,100032.91
2022-12-24T07:22:14.997Z,100045.22
2022-12-24T07:24:43.431Z,100042.59
2022-12-24T07:27:11.330Z,100046.09
2022-12-24T07:29:41.256Z,100049.66
2022-12-24T07:32:09.127Z,100056.66
2022-12-24T07:34:37.190Z,100061.09
2022-12-24T07:37:04.949Z,100071.63
2022-12-24T07:39:32.643Z,100072.50
2022-12-24T07:42:00.314Z,100081.31
2022-12-24T07:44:28.044Z,100086.59
2022-12-24T07:46:57.103Z,100089.22
2022-12-24T07:49:24.921Z,100101.56
2022-12-24T07:51:52.632Z,100099.78
2022-12-24T07:54:20.377Z,100105.06
2022-12-24T07:56:48.185Z,100107.72
2022-12-24T07:59:15.940Z,100120.03
2022-12-24T08:01:44.211Z,100126.19
2022-12-24T08:04:13.952Z,100120.91
2022-12-24T08:06:41.704Z,100127.06
2022-12-24T08:09:14.277Z,100135.00
2022-12-24T08:11:46.295Z,100134.13
2022-12-24T08:14:19.266Z,100136.78
2022-12-24T08:16:47.103Z,100146.47
2022-12-24T08:19:16.194Z,100148.19
2022-12-24T08:21:43.940Z,100154.38
2022-12-24T08:24:11.738Z,100156.13
2022-12-24T08:26:39.514Z,100164.06
2022-12-24T08:29:07.968Z,100174.63
2022-12-24T08:31:36.711Z,100171.13
2022-12-24T08:34:05.387Z,100171.13
2022-12-24T08:36:34.830Z,100164.09
2022-12-24T08:39:03.854Z,100172.00
2022-12-24T08:41:32.017Z,100179.94
2022-12-24T08:43:59.970Z,100183.47
2022-12-24T08:46:27.673Z,100192.25
2022-12-24T08:48:55.434Z,100188.78
2022-12-24T08:51:23.147Z,100198.44
2022-12-24T08:53:52.111Z,100200.22
2022-12-24T08:56:19.767Z,100199.34
2022-12-24T08:58:48.825Z,100199.34
2022-12-24T09:01:18.824Z,100211.66
2022-12-24T09:03:47.347Z,100217.84
2022-12-24T09:06:15.905Z,100217.00
2022-12-24T09:08:43.636Z,100211.72
2022-12-24T09:11:16.206Z,100224.97
2022-12-24T09:13:44.745Z,100225.84
2022-12-24T09:16:13.386Z,100231.16
2022-12-24T09:18:41.773Z,100237.31
2022-12-24T09:21:14.341Z,100240.84
2022-12-24T09:23:43.650Z,100242.59
2022-12-24T09:26:15.122Z,100249.66
2022-12-24T09:28:42.891Z,100250.53
2022-12-24T09:31:11.350Z,100260.25
2022-12-24T09:33:42.329Z,100261.13
2022-12-24T09:36:10.739Z,100274.38
2022-12-24T09:38:40.200Z,100278.75
2022-12-24T09:41:15.647Z,100278.78
2022-12-24T09:43:48.544Z,100274.38
2022-12-24T09:46:24.037Z,100285.81
2022-12-24T09:48:56.162Z,100296.44
2022-12-24T09:51:30.473Z,100304.38
2022-12-24T09:54:04.131Z,100309.66
2022-12-24T09:56:38.489Z,100310.56
2022-12-24T09:59:07.928Z,100314.97
2022-12-24T10:01:36.051Z,100319.38
2022-12-24T10:04:06.332Z,100317.63
2022-12-24T10:06:41.042Z,100314.06
2022-12-24T10:09:17.073Z,100322.00
2022-12-24T10:11:53.342Z,100330.81
2022-12-24T10:14:35.266Z,100321.09
2022-12-24T10:17:18.676Z,100327.31
2022-12-24T10:19:53.773Z,100334.38
2022-12-24T10:22:28.772Z,100335.25
2022-12-24T10:25:04.241Z,100329.94
2022-12-24T10:27:38.189Z,100327.34
2022-12-24T10:30:17.236Z,100338.78
2022-12-24T10:32:45.158Z,100349.38
2022-12-24T10:35:22.891Z,100356.44
2022-12-24T10:37:52.615Z,100353.81
2022-12-24T10:40:30.127Z,100354.69
2022-12-24T10:42:59.347Z,100356.44
2022-12-24T10:45:38.217Z,100356.47
2022-12-24T10:48:11.508Z,100356.44
2022-12-24T10:50:44.014Z,100365.25
2022-12-24T10:53:18.789Z,100360.88
2022-12-24T10:55:48.601Z,100359.09
2022-12-24T10:58:20.672Z,100371.47
2022-12-24T11:00:52.114Z,100366.16
2022-12-24T11:03:26.269Z,100366.16
2022-12-24T11:06:09.417Z,100380.28
2022-12-24T11:08:39.458Z,100374.97
2022-12-24T11:11:09.687Z,100379.38
2022-12-24T11:13:42.013Z,100387.28
2022-12-24T11:16:19.663Z,100382.00
2022-12-24T11:18:51.916Z,100389.94
2022-12-24T11:21:22.819Z,100389.94
2022-12-24T11:23:53.025Z,100385.56
2022-12-24T11:26:23.977Z,100385.56
2022-12-24T11:29:13.060Z,100382.03
2022-12-24T11:31:41.202Z,100384.66
2022-12-24T11:34:23.910Z,100393.47
2022-12-24T11:36:52.309Z,100395.22
2022-12-24T11:39:21.539Z,100399.59
2022-12-24T11:41:51.002Z,100396.03
2022-12-24T11:44:27.617Z,100396.06
2022-12-24T11:46:57.626Z,100397.84
2022-12-24T11:49:27.655Z,100398.72
2022-12-24T11:52:25.375Z,100397.00
2022-12-24T11:55:08.906Z,100402.28
2022-12-24T11:57:49.093Z,100403.19
2022-12-24T12:00:18.823Z,100417.31
2022-12-24T12:02:50.157Z,100412.88
2022-12-24T12:05:21.255Z,100415.53
2022-12-24T12:07:52.316Z,100415.53
2022-12-24T12:10:23.283Z,100410.28
2022-12-24T12:12:58.875Z,100419.97
2022-12-24T12:15:34.320Z,100419.09
2022-12-24T12:18:07.415Z,100410.25
2022-12-24T12:20:37.660Z,100404.97
2022-12-24T12:23:14.636Z,100405.00
2022-12-24T12:25:48.611Z,100409.38
2022-12-24T12:28:23.073Z,100397.03
2022-12-24T12:31:01.784Z,100408.50
2022-12-24T12:33:34.712Z,100408.53
2022-12-24T12:36:04.752Z,100402.31
2022-12-24T12:38:34.142Z,100411.19
2022-12-24T12:41:11.571Z,100418.25
2022-12-24T12:44:04.002Z,100413.81
2022-12-24T12:46:49.246Z,100426.19
2022-12-24T12:49:31.053Z,100422.66
2022-12-24T12:52:04.215Z,100422.66
2022-12-24T12:54:48.946Z,100427.94
2022-12-24T12:57:22.832Z,100427.06
2022-12-24T12:59:54.348Z,100422.63
2022-12-24T13:02:57.430Z,100435.91
2022-12-24T13:06:01.341Z,100438.53
2022-12-24T13:08:49.295Z,100441.19
2022-12-24T13:11:41.075Z,100443.81
2022-12-24T13:14:28.822Z,100439.38
2022-12-24T13:17:15.985Z,100458.81
2022-12-24T13:20:05.769Z,100455.28
2022-12-24T13:22:33.461Z,100462.31
2022-12-24T13:25:01.383Z,100464.97
2022-12-24T13:27:32.426Z,100476.44
2022-12-24T13:30:09.628Z,100473.78
2022-12-24T13:32:41.183Z,100476.38
2022-12-24T13:35:37.528Z,100474.63
2022-12-24T13:38:43.478Z,100476.41
2022-12-24T13:41:56.926Z,100481.66
2022-12-24T13:44:25.941Z,100484.31
2022-12-24T13:46:57.969Z,100516.03
2022-12-24T13:49:34.147Z,100502.81
2022-12-24T13:52:18.753Z,100513.38
2022-12-24T13:54:51.118Z,100522.19
2022-12-24T13:57:30.474Z,100518.66
2022-12-24T14:00:02.269Z,100517.75
2022-12-24T14:02:46.822Z,100523.94
2022-12-24T14:05:23.320Z,100512.47
2022-12-24T14:07:52.718Z,100523.91
2022-12-24T14:10:24.428Z,100526.53
2022-12-24T14:12:53.693Z,100527.41
2022-12-24T14:15:47.351Z,100536.22
2022-12-24T14:18:19.159Z,100533.56
2022-12-24T14:20:50.710Z,100532.66
2022-12-24T14:23:30.744Z,100537.06
2022-12-24T14:25:59.284Z,100541.47
2022-12-24T14:28:35.062Z,100546.72
2022-12-24T14:31:03.673Z,100549.31
2022-12-24T14:33:32.556Z,100551.97
2022-12-24T14:36:01.811Z,100549.31
2022-12-24T14:38:31.549Z,100556.34
2022-12-24T14:41:08.033Z,100541.34
2022-12-24T14:43:51.584Z,100547.50
2022-12-24T14:46:28.761Z,100551.91
2022-12-24T14:48:59.898Z,100559.81
2022-12-24T14:51:36.885Z,100566.84
2022-12-24T14:54:21.447Z,100575.63
2022-12-24T14:56:49.135Z,100572.97
2022-12-24T14:59:17.749Z,100593.22
2022-12-24T15:01:46.652Z,100601.13
2022-12-24T15:04:19.364Z,100601.13
2022-12-24T15:06:50.415Z,100599.38
2022-12-24T15:09:23.218Z,100605.50
2022-12-24T15:11:53.930Z,100610.78
2022-12-24T15:14:23.640Z,100616.94
2022-12-24T15:16:55.759Z,100632.81
2022-12-24T15:19:27.771Z,100626.63
2022-12-24T15:21:56.659Z,100627.50
2022-12-24T15:24:28.254Z,100631.91
2022-12-24T15:26:57.085Z,100630.16
2022-12-24T15:29:26.756Z,100623.97
2022-12-24T15:31:56.391Z,100620.47
2022-12-24T15:34:27.749Z,100628.34
2022-12-24T15:37:03.686Z,100627.47
2022-12-24T15:39:33.157Z,100624.78
2022-12-24T15:42:16.035Z,100630.06
2022-12-24T15:44:48.621Z,100635.31
2022-12-24T15:47:18.804Z,100635.28
2022-12-24T15:49:49.864Z,100636.16
2022-12-24T15:52:20.087Z,100638.75
2022-12-24T15:54:57.195Z,100658.16
2022-12-24T15:57:30.463Z,100641.34
2022-12-24T15:59:59.565Z,100649.25
2022-12-24T16:02:37.795Z,100655.41
2022-12-24T16:05:42.387Z,100656.25
2022-12-24T16:08:29.145Z,100656.22
2022-12-24T16:11:16.099Z,100663.25
2022-12-24T16:13:52.719Z,100674.63
2022-12-24T16:16:22.857Z,100691.38
2022-12-24T16:18:54.642Z,100740.63
2022-12-24T16:21:26.809Z,100719.50
2022-12-24T16:23:56.581Z,100715.09
2022-12-24T16:26:25.593Z,100716.84
2022-12-24T16:28:53.296Z,100719.47
2022-12-24T16:31:30.934Z,100730.94
2022-12-24T16:34:00.613Z,100737.06
2022-12-24T16:36:29.308Z,100727.41
2022-12-24T16:39:15.913Z,100723.84
2022-12-24T16:42:02.594Z,100717.66
2022-12-24T16:44:30.281Z,100730.00
2022-12-24T16:47:00.501Z,100722.94
2022-12-24T16:49:28.996Z,100712.38
2022-12-24T16:51:56.728Z,100732.63
2022-12-24T16:54:24.401Z,100709.69
2022-12-24T16:56:53.354Z,100714.09
2022-12-24T16:59:23.785Z,100711.41
2022-12-24T17:01:52.264Z,100712.28
2022-12-24T17:04:20.415Z,100707.78
2022-12-24T17:06:50.582Z,100723.59
2022-12-24T17:09:18.302Z,100716.50
2022-12-24T17:11:46.003Z,100725.28
2022-12-24T17:14:19.996Z,100719.91
2022-12-24T17:16:48.141Z,100729.56
2022-12-24T17:19:15.803Z,100738.31
2022-12-24T17:21:43.436Z,100738.25
2022-12-24T17:25:09.453Z,100737.34
2022-12-24T17:27:37.210Z,100744.28
2022-12-24T17:30:08.042Z,100743.34
2022-12-24T17:32:37.315Z,100747.66
2022-12-24T17:35:05.220Z,100751.06
2022-12-24T17:37:32.822Z,100752.78
2022-12-24T17:40:00.390Z,100744.78
2022-12-24T17:42:28.075Z,100754.38
2022-12-24T17:44:55.616Z,100760.38
2022-12-24T17:47:24.475Z,100760.31
2022-12-24T17:49:51.994Z,100759.34
2022-12-24T17:52:19.509Z,100754.78
2022-12-24T17:54:47.052Z,100757.34
2022-12-24T17:57:14.614Z,100760.75
2022-12-24T17:59:42.107Z,100772.06
2022-12-24T18:02:12.768Z,100761.41
2022-12-24T18:04:41.773Z,100772.69
2022-12-24T18:07:09.357Z,100776.16
2022-12-24T18:09:37.163Z,100771.66
2022-12-24T18:12:05.328Z,100767.19
2022-12-24T18:14:32.895Z,100767.97
2022-12-24T18:17:00.491Z,100773.09
2022-12-24T18:19:28.161Z,100786.22
2022-12-24T18:21:57.136Z,100781.78
2022-12-24T18:24:24.746Z,100779.91
2022-12-24T18:26:53.456Z,100780.66
2022-12-24T18:29:21.014Z,100779.63
2022-12-24T18:31:48.561Z,100792.72
2022-12-24T18:34:16.323Z,100788.25
2022-12-24T18:36:44.856Z,100792.53
2022-12-24T18:39:16.007Z,100795.94
2022-12-24T18:41:43.507Z,100802.88
2022-12-24T18:44:11.070Z,100806.28
2022-12-24T18:46:38.599Z,100802.66
2022-12-24T18:49:06.202Z,100806.94
2022-12-24T18:51:36.189Z,100813.88
2022-12-24T18:54:04.241Z,100813.75
2022-12-24T18:56:33.207Z,100818.88
2022-12-24T18:59:02.649Z,100815.28
2022-12-24T19:01:32.083Z,100816.97
2022-12-24T19:04:00.298Z,100819.47
2022-12-24T19:06:28.111Z,100822.97
2022-12-24T19:08:59.071Z,100826.41
2022-12-24T19:11:31.203Z,100826.31
2022-12-24T19:14:01.164Z,100824.53
2022-12-24T19:16:30.174Z,100818.31
2022-12-24T19:18:58.192Z,100823.47
2022-12-24T19:21:26.094Z,100819.88
2022-12-24T19:23:53.934Z,100824.19
2022-12-24T19:26:21.837Z,100829.41
2022-12-24T19:28:50.155Z,100830.09
2022-12-24T19:31:20.983Z,100831.75
2022-12-24T19:33:50.565Z,100836.91
2022-12-24T19:36:20.787Z,100842.06
2022-12-24T19:38:48.890Z,100838.47
2022-12-24T19:41:19.252Z,100836.59
2022-12-24T19:43:48.308Z,100840.88
2022-12-24T19:46:17.712Z,100835.56
2022-12-24T19:48:50.085Z,100845.09
2022-12-24T19:51:19.038Z,100836.16
2022-12-24T19:53:47.486Z,100846.59
2022-12-24T19:56:15.970Z,100851.72
2022-12-24T19:58:44.446Z,100852.50
2022-12-24T20:01:15.883Z,100857.63
2022-12-24T20:03:44.569Z,100861.09
2022-12-24T20:06:14.319Z,100856.59
2022-12-24T20:08:43.607Z,100853.84
2022-12-24T20:11:13.883Z,100863.41
2022-12-24T20:13:42.173Z,100863.38
2022-12-24T20:16:11.948Z,100875.56
2022-12-24T20:18:39.622Z,100866.78
2022-12-24T20:21:10.559Z,100868.47
2022-12-24T20:23:40.570Z,100882.44
2022-12-24T20:26:10.138Z,100880.53
2022-12-24T20:28:39.750Z,100877.84
2022-12-24T20:31:12.749Z,100883.06
2022-12-24T20:33:40.533Z,100880.34
2022-12-24T20:36:08.531Z,100882.03
2022-12-24T20:38:37.104Z,100887.22
2022-12-24T20:41:09.586Z,100886.31
2022-12-24T20:43:44.972Z,100887.22
2022-12-24T20:46:15.092Z,100896.88
2022-12-24T20:48:42.824Z,100896.91
2022-12-24T20:51:19.183Z,100907.41
2022-12-24T20:53:51.196Z,100908.22
2022-12-24T20:56:20.360Z,100901.25
2022-12-24T20:58:47.955Z,100903.88
2022-12-24T21:01:18.429Z,100902.06
2022-12-24T21:03:46.386Z,100908.19
2022-12-24T21:06:15.585Z,100909.88
2022-12-24T21:08:43.149Z,100914.22
2022-12-24T21:11:28.292Z,100913.34
2022-12-24T21:13:57.317Z,100905.41
2022-12-24T21:16:25.021Z,100918.59
2022-12-24T21:18:52.774Z,100916.84
2022-12-24T21:21:20.522Z,100906.38
2022-12-24T21:23:48.160Z,100909.03
2022-12-24T21:26:15.680Z,100910.81
2022-12-24T21:28:43.880Z,100920.44
2022-12-24T21:31:14.658Z,100917.75
2022-12-24T21:33:42.979Z,100908.03
2022-12-24T21:36:12.724Z,100914.97
2022-12-24T21:38:40.596Z,100915.75
2022-12-24T21:41:10.354Z,100926.16
2022-12-24T21:43:38.449Z,100930.34
2022-12-24T21:46:07.805Z,100938.09
2022-12-24T21:48:56.652Z,100940.53
2022-12-24T21:51:26.341Z,100937.81
2022-12-24T21:54:11.657Z,100936.75
2022-12-24T21:56:53.662Z,100941.97
2022-12-24T21:59:26.295Z,100951.53
2022-12-24T22:01:57.172Z,100962.91
2022-12-24T22:04:26.450Z,100964.59
2022-12-24T22:07:11.819Z,100968.91
2022-12-24T22:09:57.893Z,100961.00
2022-12-24T22:12:26.228Z,100961.78
2022-12-24T22:14:53.827Z,100966.94
2022-12-24T22:17:24.992Z,100971.25
2022-12-24T22:19:55.102Z,100972.00
2022-12-24T22:22:23.381Z,100979.75
2022-12-24T22:24:51.026Z,100975.22
2022-12-24T22:27:18.761Z,100982.09
2022-12-24T22:29:46.643Z,100977.59
2022-12-24T22:32:14.137Z,100981.88
2022-12-24T22:34:41.724Z,100983.50
2022-12-24T22:37:10.617Z,100983.44
2022-12-24T22:39:39.053Z,100987.69
2022-12-24T22:42:06.663Z,100974.50
2022-12-24T22:44:34.344Z,100980.59
2022-12-24T22:47:01.831Z,100977.03
2022-12-24T22:49:29.366Z,100973.47
2022-12-24T22:51:57.955Z,100983.03
2022-12-24T22:54:26.837Z,100976.84
2022-12-24T22:56:54.347Z,100982.97
2022-12-24T22:59:21.854Z,100982.78
2022-12-24T23:01:52.723Z,100984.47
2022-12-24T23:04:20.670Z,100994.84
2022-12-24T23:06:48.312Z,100992.16
2022-12-24T23:09:16.914Z,100991.22
2022-12-24T23:11:46.075Z,100984.19
2022-12-24T23:14:34.936Z,100986.81
2022-12-24T23:17:02.683Z,100979.78
2022-12-24T23:19:31.885Z,100978.00
2022-12-24T23:21:59.392Z,100974.50
2022-12-24T23:24:27.043Z,100980.50
2022-12-24T23:26:56.405Z,100984.84
2022-12-24T23:29:24.330Z,100979.56
2022-12-24T23:31:51.884Z,100993.50
2022-12-24T23:34:19.419Z,100997.84
2022-12-24T23:36:46.905Z,100996.91
2022-12-24T23:39:14.417Z,100995.97
2022-12-24T23:41:41.975Z,101001.16
2022-12-24T23:44:10.822Z,101000.22
2022-12-24T23:46:38.391Z,101006.28
2022-12-24T23:49:06.808Z,101004.47
2022-12-24T23:51:34.315Z,100997.47
2022-12-24T23:54:01.884Z,100998.28
2022-12-24T23:56:29.420Z,100988.75
2022-12-24T23:58:56.929Z,100983.50
